Time;durP1;ratioP1;P1;durP2;ratioP2;P2;SDS_P1;SDS_P2;PMS_P1;PMS_P2;Temp;Humidity;BMP_temperature;BMP_pressure;BME280_temperature;BME280_humidity;BME280_pressure;Samples;Min_cycle;Max_cycle;Signal;HPM_P1;HPM_P2
2020/05/23 00:03:53;;;;;;;3.5;1.2;;;;;;;19.52;50.33691;943.7134;;;;
2020/05/23 00:06:17;;;;;;;6.1;1.2;;;;;;;19.54;48.64844;943.7837;;;;
2020/05/23 00:08:48;;;;;;;3.1;1.2;;;;;;;19.53;50.19824;943.6647;;;;
2020/05/23 00:11:12;;;;;;;2.2;1;;;;;;;19.47;48.39746;943.7206;;;;
2020/05/23 00:13:43;;;;;;;4.1;1.1;;;;;;;19.43;49.9541;943.798;;;;
2020/05/23 00:25:09;;;;;;;3.1;1.1;;;;;;;19.06;49.70313;943.7166;;;;
2020/05/23 00:48:07;;;;;;;3.7;0.9;;;;;;;18.83;48.90918;943.6728;;;;
2020/05/23 00:50:32;;;;;;;3.9;1.1;;;;;;;18.84;50.65527;943.6291;;;;
2020/05/23 01:09:45;;;;;;;3.4;1.2;;;;;;;18.78;52.60254;943.7659;;;;
2020/05/23 01:15:05;;;;;;;3.5;1.6;;;;;;;18.66;52.82129;943.6941;;;;
2020/05/23 01:17:03;;;;;;;4.7;1.4;;;;;;;18.67;51.65918;943.7076;;;;
2020/05/23 01:19:29;;;;;;;6.2;1.5;;;;;;;18.66;53.12402;943.7151;;;;
2020/05/23 01:36:24;;;;;;;2.3;1;;;;;;;18.65;53.48438;943.7216;;;;
2020/05/23 01:44:32;;;;;;;4.1;1.3;;;;;;;18.66;52.42578;943.653;;;;
2020/05/23 01:49:04;;;;;;;3.4;1;;;;;;;18.68;54.02148;943.6769;;;;
2020/05/23 01:51:46;;;;;;;2.7;1.2;;;;;;;18.58;54.26563;943.6928;;;;
2020/05/23 01:54:06;;;;;;;3.5;1;;;;;;;18.58;53.23047;943.6323;;;;
2020/05/23 01:56:29;;;;;;;4.3;1.1;;;;;;;18.54;53.21387;943.6837;;;;
2020/05/23 02:03:01;;;;;;;4.3;1.2;;;;;;;18.65;53.43652;943.5934;;;;
2020/05/23 02:07:47;;;;;;;3.1;0.9;;;;;;;18.49;52.46387;943.5561;;;;
2020/05/23 02:09:57;;;;;;;3.1;0.9;;;;;;;18.54;52.21387;943.5731;;;;
2020/05/23 02:12:17;;;;;;;3.2;1.2;;;;;;;18.53;52.89941;943.562;;;;
2020/05/23 02:14:45;;;;;;;2.4;1;;;;;;;18.57;52.08984;943.5123;;;;
2020/05/23 02:17:13;;;;;;;3.9;1.4;;;;;;;18.57;52.03125;943.509;;;;
2020/05/23 02:19:33;;;;;;;3;0.9;;;;;;;18.38;52.64844;943.4717;;;;
2020/05/23 02:21:58;;;;;;;2.8;1;;;;;;;18.33;53.31641;943.4659;;;;
2020/05/23 02:25:24;;;;;;;2.4;1;;;;;;;18.3;56.43945;943.5259;;;;
2020/05/23 02:26:55;;;;;;;3.1;1.1;;;;;;;18.3;55.2998;943.3872;;;;
2020/05/23 02:29:16;;;;;;;1.6;0.9;;;;;;;18.28;54.03125;943.4899;;;;
2020/05/23 02:31:53;;;;;;;1.9;0.8;;;;;;;18.28;53.53027;943.46;;;;
2020/05/23 02:34:07;;;;;;;3.6;1;;;;;;;18.28;53.01953;943.4584;;;;
2020/05/23 02:36:40;;;;;;;1.8;0.9;;;;;;;18.31;52.87305;943.4426;;;;
2020/05/23 02:38:57;;;;;;;3;1;;;;;;;18.19;53.97461;943.4688;;;;
2020/05/23 02:41:26;;;;;;;4.3;1.4;;;;;;;18.14;57.68457;943.4872;;;;
2020/05/23 02:43:49;;;;;;;4;1.2;;;;;;;18.2;55.33398;943.5178;;;;
2020/05/23 02:46:15;;;;;;;2.8;1;;;;;;;18.19;54.5791;943.4542;;;;
2020/05/23 02:48:44;;;;;;;2.8;1.1;;;;;;;18.14;54.86133;943.4767;;;;
2020/05/23 02:51:05;;;;;;;4;1.1;;;;;;;18.14;55.58301;943.4484;;;;
2020/05/23 02:53:37;;;;;;;4.8;1.2;;;;;;;18.17;55.69141;943.4641;;;;
2020/05/23 02:55:56;;;;;;;3.8;1;;;;;;;18.21;54.70801;943.4436;;;;
2020/05/23 02:58:23;;;;;;;3.3;1.2;;;;;;;18.14;54.83789;943.4267;;;;
2020/05/23 03:00:48;;;;;;;3.4;1.3;;;;;;;18.02;54.83496;943.402;;;;
2020/05/23 03:03:30;;;;;;;4.4;1.3;;;;;;;17.89;55.2373;943.367;;;;
2020/05/23 03:05:42;;;;;;;2;1.1;;;;;;;17.85;56.9502;943.3925;;;;
2020/05/23 03:08:07;;;;;;;5.5;1.3;;;;;;;17.83;57.70215;943.3492;;;;
2020/05/23 03:10:32;;;;;;;5.7;1.3;;;;;;;17.87;57.1748;943.3978;;;;
2020/05/23 03:12:58;;;;;;;4.9;1.5;;;;;;;17.94;57.06641;943.3641;;;;
2020/05/23 03:16:44;;;;;;;4.6;1.3;;;;;;;17.97;56.4082;943.3323;;;;
2020/05/23 03:17:54;;;;;;;7.7;1.6;;;;;;;17.9;56.37695;943.4048;;;;
2020/05/23 03:20:14;;;;;;;2.6;1.3;;;;;;;17.81;56.36523;943.4683;;;;
2020/05/23 03:22:39;;;;;;;4;1.3;;;;;;;17.78;58.43848;943.4517;;;;
2020/05/23 03:25:04;;;;;;;4.5;1.3;;;;;;;17.84;56.83398;943.4135;;;;
2020/05/23 03:27:29;;;;;;;5.4;1.3;;;;;;;17.79;56.87402;943.4579;;;;
2020/05/23 03:33:22;;;;;;;3;1.3;;;;;;;17.7;57.09277;943.3937;;;;
2020/05/23 03:35:33;;;;;;;4;1.3;;;;;;;17.73;56.8418;943.3901;;;;
2020/05/23 03:37:31;;;;;;;4.3;1.3;;;;;;;17.72;57.76953;943.3338;;;;
2020/05/23 04:38:06;;;;;;;12.3;6.8;;;;;;;17.66;58.49316;943.3333;;;;
2020/05/23 04:39:07;;;;;;;14.4;5.5;;;;;;;17.71;57.41992;943.3226;;;;
2020/05/23 04:43:08;;;;;;;9.6;4.5;;;;;;;17.73;58.52637;943.3047;;;;
2020/05/23 04:44:04;;;;;;;10.8;5.1;;;;;;;17.74;59.41992;943.2756;;;;
2020/05/23 04:46:47;;;;;;;6.7;2.4;;;;;;;17.74;57.35449;943.2725;;;;
2020/05/23 04:48:44;;;;;;;6.8;2.3;;;;;;;17.76;57.83398;943.2561;;;;
2020/05/23 05:20:15;;;;;;;5.1;1.3;;;;;;;18.99;52.53418;943.0013;;;;
2020/05/23 05:22:43;;;;;;;3;1.3;;;;;;;19.15;52.05371;942.9781;;;;
2020/05/23 05:27:40;;;;;;;18;2.3;;;;;;;18.69;52.11523;943.0112;;;;
2020/05/23 05:30:08;;;;;;;6.5;1.7;;;;;;;18.73;52.60938;943.0276;;;;
2020/05/23 05:44:38;;;;;;;2.2;1.4;;;;;;;18.65;55.54297;942.9858;;;;
2020/05/23 06:03:59;;;;;;;10.3;1.9;;;;;;;19.57;52.44141;942.8338;;;;
2020/05/23 06:18:28;;;;;;;5.3;2.2;;;;;;;19.89;52.16406;942.8123;;;;
2020/05/23 06:23:03;;;;;;;7.6;2;;;;;;;20.21;51.47852;942.7626;;;;
2020/05/23 06:31:11;;;;;;;5.5;1.6;;;;;;;21.53;48.77539;942.666;;;;
2020/05/23 06:35:16;;;;;;;5.9;1.7;;;;;;;22.12;49.66016;942.6933;;;;
2020/05/23 07:10:26;;;;;;;5.9;1.3;;;;;;;24.82;42.44922;942.6024;;;;
2020/05/23 07:14:30;;;;;;;2.9;1.1;;;;;;;24.28;42.97559;942.7518;;;;
2020/05/23 07:16:26;;;;;;;3.3;1.5;;;;;;;23.87;46.77246;942.6943;;;;
2020/05/23 07:23:35;;;;;;;4;1.3;;;;;;;23.28;45.58301;942.6236;;;;
2020/05/23 07:25:59;;;;;;;5.3;1.3;;;;;;;24.72;42.52246;942.6353;;;;
2020/05/23 07:28:15;;;;;;;4.9;1.1;;;;;;;25.96;38.76172;942.5822;;;;
2020/05/23 07:30:40;;;;;;;2.4;1.2;;;;;;;27.26;37.90137;942.4916;;;;
2020/05/23 07:33:05;;;;;;;5;1.2;;;;;;;29.4;34.28125;942.4788;;;;
2020/05/23 07:35:30;;;;;;;4.7;1.3;;;;;;;29.69;33.03906;942.5549;;;;
2020/05/23 07:37:57;;;;;;;3.3;1.2;;;;;;;29.55;34.78125;942.5798;;;;
2020/05/23 07:40:22;;;;;;;2.8;1.1;;;;;;;30.23;31.80176;942.573;;;;
2020/05/23 07:42:47;;;;;;;3.7;1.1;;;;;;;29.76;34.69043;942.5345;;;;
2020/05/23 07:45:13;;;;;;;3.6;1.3;;;;;;;29.03;34.30078;942.5033;;;;
2020/05/23 07:47:40;;;;;;;3.9;1.3;;;;;;;28.62;36.35156;942.4885;;;;
2020/05/23 07:50:05;;;;;;;3.2;1.3;;;;;;;29.2;36.32617;942.4233;;;;
2020/05/23 07:52:30;;;;;;;4.1;1.3;;;;;;;30.4;34.16602;942.4872;;;;
2020/05/23 07:54:55;;;;;;;7.2;1.6;;;;;;;31.45;33.41992;942.4606;;;;
2020/05/23 07:57:21;;;;;;;3.6;1.1;;;;;;;32.13;31.85156;942.4406;;;;
2020/05/23 07:59:46;;;;;;;3.5;1.1;;;;;;;32.18;31.71094;942.4761;;;;
2020/05/23 08:02:13;;;;;;;2.2;1.1;;;;;;;32.06;30.97168;942.4623;;;;
2020/05/23 08:04:38;;;;;;;2.4;1.3;;;;;;;30.91;33.36719;942.4438;;;;
2020/05/23 08:07:11;;;;;;;1.9;1.3;;;;;;;30.09;33.95215;942.4458;;;;
2020/05/23 08:11:55;;;;;;;2.3;1.3;;;;;;;28.05;37.91992;942.5281;;;;
2020/05/23 08:14:21;;;;;;;2.9;1.4;;;;;;;27.35;39.86621;942.4874;;;;
2020/05/23 08:16:46;;;;;;;3.6;1.4;;;;;;;26.54;40.54102;942.4856;;;;
2020/05/23 08:19:12;;;;;;;4.6;1.8;;;;;;;25.72;43.79883;942.4805;;;;
2020/05/23 08:21:37;;;;;;;1.7;1.6;;;;;;;25.09;45.37891;942.4709;;;;
2020/05/23 08:24:04;;;;;;;3.5;1.8;;;;;;;24.57;47.48242;942.4917;;;;
2020/05/23 08:26:29;;;;;;;4.2;1.8;;;;;;;24.32;48.69238;942.4945;;;;
2020/05/23 08:28:55;;;;;;;8.7;2.1;;;;;;;24.12;50.00195;942.413;;;;
2020/05/23 08:31:20;;;;;;;3.8;1.9;;;;;;;24.02;50.3916;942.4692;;;;
2020/05/23 08:33:46;;;;;;;3.6;1.9;;;;;;;24.08;51.15137;942.4626;;;;
2020/05/23 08:36:11;;;;;;;5.9;1.9;;;;;;;24.33;49.94336;942.4655;;;;
2020/05/23 08:38:38;;;;;;;6;2.3;;;;;;;24.05;50.27637;942.4141;;;;
2020/05/23 08:41:03;;;;;;;3.2;2.3;;;;;;;24.18;50.77539;942.4125;;;;
2020/05/23 08:43:29;;;;;;;2.9;2.4;;;;;;;24.98;50.22754;942.4406;;;;
2020/05/23 08:45:54;;;;;;;3.9;2.7;;;;;;;25.44;50.15039;942.3781;;;;
2020/05/23 08:48:20;;;;;;;4.3;2.6;;;;;;;25.62;48.50293;942.2916;;;;
2020/05/23 08:50:45;;;;;;;3.1;2.5;;;;;;;25.74;48.68262;942.2798;;;;
2020/05/23 08:53:11;;;;;;;4.9;2.9;;;;;;;25.7;48.37109;942.2134;;;;
2020/05/23 08:55:36;;;;;;;4.6;3;;;;;;;25.74;48.42285;942.1891;;;;
2020/05/23 08:58:02;;;;;;;4.6;2.9;;;;;;;25.82;48.5498;942.2075;;;;
2020/05/23 09:00:36;;;;;;;6.3;2.8;;;;;;;25.68;49.39746;942.2054;;;;
2020/05/23 09:02:53;;;;;;;5.2;3.2;;;;;;;26.02;50.67578;942.1117;;;;
2020/05/23 09:05:23;;;;;;;6.6;3.3;;;;;;;26.59;49.2832;942.1028;;;;
2020/05/23 09:15:05;;;;;;;4.2;2.9;;;;;;;28.36;45.23438;941.8029;;;;
2020/05/23 09:17:44;;;;;;;5.5;2.9;;;;;;;28.39;45.59375;941.7101;;;;
2020/05/23 09:20:06;;;;;;;6.7;2.8;;;;;;;28.8;44.87402;941.7109;;;;
2020/05/23 09:22:26;;;;;;;4.7;2.8;;;;;;;29.04;45.55371;941.617;;;;
2020/05/23 09:24:51;;;;;;;5.6;3.1;;;;;;;28.92;44.93359;941.5941;;;;
2020/05/23 09:27:16;;;;;;;10.6;2.8;;;;;;;29.07;43.24609;941.5366;;;;
2020/05/23 09:29:42;;;;;;;6.7;2.7;;;;;;;29.28;43.06348;941.4709;;;;
2020/05/23 09:32:07;;;;;;;4.7;2.8;;;;;;;29.83;41.69629;941.402;;;;
2020/05/23 09:34:32;;;;;;;3.8;2.6;;;;;;;30.35;41.32715;941.3242;;;;
2020/05/23 09:36:58;;;;;;;3.6;2.6;;;;;;;30.68;40.67578;941.2278;;;;
2020/05/23 09:39:24;;;;;;;5.4;2.7;;;;;;;30.77;42.09375;941.1127;;;;
2020/05/23 09:41:49;;;;;;;3.6;2.3;;;;;;;30.97;41.65918;941.0303;;;;
2020/05/23 09:44:14;;;;;;;3.8;2.6;;;;;;;30.86;38.58789;940.9428;;;;
2020/05/23 09:46:39;;;;;;;4.4;2.4;;;;;;;30.7;39.61426;940.8825;;;;
2020/05/23 09:49:05;;;;;;;3.6;2.2;;;;;;;30.85;39.53223;940.8728;;;;
2020/05/23 09:51:30;;;;;;;3.8;2;;;;;;;30.89;38.56641;940.8398;;;;
2020/05/23 09:53:55;;;;;;;3.5;2.1;;;;;;;30.62;39.42773;940.7957;;;;
2020/05/23 09:56:20;;;;;;;2.3;1.9;;;;;;;30.91;38.38965;940.7053;;;;
2020/05/23 09:58:45;;;;;;;4.2;2.3;;;;;;;30.96;38.02246;940.5539;;;;
2020/05/23 10:01:10;;;;;;;2.4;2.2;;;;;;;31.01;39.80859;940.5636;;;;
2020/05/23 10:03:36;;;;;;;4.1;2.1;;;;;;;31.25;39.57813;940.5027;;;;
2020/05/23 10:06:04;;;;;;;3;2.6;;;;;;;31.28;37.63086;940.4437;;;;
2020/05/23 10:08:31;;;;;;;5.1;2.3;;;;;;;31.2;38.41309;940.4361;;;;
2020/05/23 10:11:00;;;;;;;10.7;3.6;;;;;;;31.11;38.41797;940.3639;;;;
2020/05/23 10:13:21;;;;;;;5.4;2.7;;;;;;;30.76;36.27246;940.2901;;;;
2020/05/23 10:18:12;;;;;;;3.5;2;;;;;;;30.92;39.83594;940.2147;;;;
2020/05/23 10:20:39;;;;;;;6.7;2.8;;;;;;;31.2;38.16211;940.2156;;;;
2020/05/23 10:25:29;;;;;;;4.7;2.2;;;;;;;31.77;39.26465;940.139;;;;
2020/05/23 10:27:56;;;;;;;3.5;2.1;;;;;;;31.85;37.15039;940.0731;;;;
2020/05/23 10:30:21;;;;;;;3.9;2.5;;;;;;;32.01;37.88281;940.0477;;;;
2020/05/23 10:32:46;;;;;;;4.6;2.3;;;;;;;31.91;37.19141;940.0569;;;;
2020/05/23 10:35:11;;;;;;;5.1;2.6;;;;;;;31.7;37.88086;939.9804;;;;
2020/05/23 10:37:38;;;;;;;3.7;2.6;;;;;;;31.76;38.82031;939.9586;;;;
2020/05/23 10:40:03;;;;;;;5;2.7;;;;;;;31.04;40.38574;939.8867;;;;
2020/05/23 10:42:30;;;;;;;4.5;2.8;;;;;;;30.96;40.09082;939.8616;;;;
2020/05/23 10:44:55;;;;;;;6;2.7;;;;;;;31.05;39.7168;939.8317;;;;
2020/05/23 10:47:22;;;;;;;4.7;3;;;;;;;30.79;40.59082;939.7679;;;;
2020/05/23 10:49:47;;;;;;;3.3;3;;;;;;;30.69;40.83203;939.6731;;;;
2020/05/23 10:52:13;;;;;;;5.3;2.8;;;;;;;30.31;42.19434;939.6627;;;;
2020/05/23 10:54:38;;;;;;;6.4;3.4;;;;;;;29.91;42.90918;939.5283;;;;
2020/05/23 10:57:05;;;;;;;4.3;2.9;;;;;;;29.85;41.84082;939.5891;;;;
2020/05/23 10:59:36;;;;;;;5.8;3.2;;;;;;;29.51;42.65723;939.5764;;;;
2020/05/23 11:02:01;;;;;;;3.7;3.1;;;;;;;29.44;43.72266;939.5027;;;;
2020/05/23 11:09:19;;;;;;;3;2.7;;;;;;;29.69;44.46191;939.4227;;;;
2020/05/23 11:11:42;;;;;;;6.1;3.2;;;;;;;29.77;44.29199;939.4094;;;;
2020/05/23 11:14:07;;;;;;;6;3;;;;;;;29.76;43.87305;939.3666;;;;
2020/05/23 11:16:32;;;;;;;6.5;3.2;;;;;;;29.58;46.28711;939.3234;;;;
2020/05/23 11:21:29;;;;;;;4.1;3;;;;;;;29.5;45.77832;939.2701;;;;
2020/05/23 11:23:48;;;;;;;4.5;3.1;;;;;;;29.39;44.09863;939.2505;;;;
2020/05/23 11:26:17;;;;;;;3.4;2.9;;;;;;;29.5;45.70605;939.2277;;;;
2020/05/23 11:28:46;;;;;;;4.6;2.7;;;;;;;29.41;45.3877;939.0974;;;;
2020/05/23 11:31:10;;;;;;;6.2;2.7;;;;;;;29.34;46.34473;939.0929;;;;
2020/05/23 11:33:35;;;;;;;4.4;2.8;;;;;;;29.28;45.43457;939.1135;;;;
2020/05/23 11:36:02;;;;;;;3.6;3;;;;;;;29.23;44.33398;939.027;;;;
2020/05/23 11:38:26;;;;;;;3.7;3.1;;;;;;;29.25;45.00293;938.9924;;;;
2020/05/23 11:40:52;;;;;;;5.5;2.8;;;;;;;29.29;44.75586;938.8736;;;;
2020/05/23 11:43:17;;;;;;;6.1;3.1;;;;;;;29.31;45.74707;938.8103;;;;
2020/05/23 11:45:42;;;;;;;5;2.8;;;;;;;29.15;44.41992;938.7656;;;;
2020/05/23 11:48:07;;;;;;;4.6;2.8;;;;;;;29;44.90625;938.7473;;;;
2020/05/23 11:50:33;;;;;;;3.6;3;;;;;;;29.16;45.60059;938.7073;;;;
2020/05/23 11:52:58;;;;;;;5.2;3.1;;;;;;;29.28;46.30371;938.6863;;;;
2020/05/23 11:55:24;;;;;;;4.8;3.1;;;;;;;29.38;44.80078;938.5967;;;;
2020/05/23 11:57:49;;;;;;;4.4;3;;;;;;;29.54;43.8623;938.5367;;;;
2020/05/23 12:00:25;;;;;;;6.5;3.3;;;;;;;29.5;43.89453;938.4645;;;;
2020/05/23 12:02:50;;;;;;;5.3;2.7;;;;;;;29.56;45.0332;938.3647;;;;
2020/05/23 12:05:15;;;;;;;4.6;2.7;;;;;;;29.86;43.13086;938.3649;;;;
2020/05/23 12:07:40;;;;;;;4.8;2.7;;;;;;;29.94;43.72266;938.3172;;;;
2020/05/23 12:10:05;;;;;;;6.3;3.1;;;;;;;29.94;43.83008;938.2791;;;;
2020/05/23 12:12:33;;;;;;;6.1;2.8;;;;;;;30.17;45.3916;938.23;;;;
2020/05/23 12:14:59;;;;;;;3.1;2.6;;;;;;;30.38;44.60059;938.1264;;;;
2020/05/23 12:17:26;;;;;;;6.8;2.8;;;;;;;30.31;43.05469;938.0823;;;;
2020/05/23 12:19:49;;;;;;;6.3;2.9;;;;;;;30.47;45.04004;937.9883;;;;
2020/05/23 12:22:15;;;;;;;3.7;2.6;;;;;;;30.65;43.75586;938.0658;;;;
2020/05/23 12:24:40;;;;;;;4.8;2.6;;;;;;;30.6;40.89648;938.0694;;;;
2020/05/23 12:27:07;;;;;;;4;2.6;;;;;;;30.52;43.14551;938.0134;;;;
2020/05/23 12:29:32;;;;;;;7.7;3.1;;;;;;;30.57;42.60254;937.9882;;;;
2020/05/23 12:31:58;;;;;;;3.9;2.6;;;;;;;30.67;42.51563;937.9334;;;;
2020/05/23 12:34:23;;;;;;;5.3;3;;;;;;;30.41;42.40723;937.9662;;;;
2020/05/23 12:36:50;;;;;;;6.1;2.9;;;;;;;30.29;43.87598;938.0058;;;;
2020/05/23 12:39:14;;;;;;;5;2.7;;;;;;;30.38;44.46973;937.9391;;;;
2020/05/23 12:41:39;;;;;;;6.4;2.9;;;;;;;30.37;42.64258;937.946;;;;
2020/05/23 12:44:05;;;;;;;4.1;2.9;;;;;;;29.93;44.59277;938.0012;;;;
2020/05/23 12:46:30;;;;;;;6.4;2.9;;;;;;;29.22;45.61914;937.9495;;;;
2020/05/23 12:48:56;;;;;;;10.7;3.5;;;;;;;29.08;46.54492;937.9503;;;;
2020/05/23 12:51:21;;;;;;;11.7;3.5;;;;;;;28.75;46.61816;938.0258;;;;
2020/05/23 12:53:47;;;;;;;5.4;3.3;;;;;;;28.45;47.38379;938.098;;;;
2020/05/23 12:56:12;;;;;;;7.7;3.6;;;;;;;28.08;47.41699;938.1707;;;;
2020/05/23 12:58:39;;;;;;;8.1;3.4;;;;;;;27.93;48.2793;938.2503;;;;
2020/05/23 13:01:04;;;;;;;8.7;3.9;;;;;;;27.31;48.23633;938.2222;;;;
2020/05/23 13:03:30;;;;;;;7.1;3.6;;;;;;;27;50.02832;938.4188;;;;
2020/05/23 13:05:55;;;;;;;8.2;3.9;;;;;;;27.16;50.24902;938.4615;;;;
2020/05/23 13:08:21;;;;;;;33.2;5.5;;;;;;;26.61;48.71777;938.5528;;;;
2020/05/23 13:10:46;;;;;;;17.1;4.4;;;;;;;26.21;49.29004;938.6337;;;;
2020/05/23 13:13:11;;;;;;;18;4.8;;;;;;;25.86;49.38184;938.7659;;;;
2020/05/23 13:15:36;;;;;;;14.4;4.6;;;;;;;25.06;49.64746;938.7836;;;;
2020/05/23 13:18:02;;;;;;;9.5;3.2;;;;;;;24.57;50.31152;938.7378;;;;
2020/05/23 13:20:26;;;;;;;9.5;2.7;;;;;;;24.34;50.89844;938.6214;;;;
2020/05/23 13:25:17;;;;;;;9.5;2.3;;;;;;;23.16;53.62012;939.1789;;;;
2020/05/23 13:30:26;;;;;;;5.2;1.7;;;;;;;22.74;53.75586;939.7378;;;;
2020/05/23 13:35:07;;;;;;;4.9;1.2;;;;;;;22.31;53.5293;940.4348;;;;
2020/05/23 13:37:36;;;;;;;7.3;1.5;;;;;;;21.94;61.04395;940.7392;;;;
2020/05/23 13:39:54;;;;;;;6.5;1.3;;;;;;;21.29;63.48047;941.0589;;;;
2020/05/23 13:42:13;;;;;;;3.6;1;;;;;;;20.88;64.98926;941.2744;;;;
2020/05/23 13:44:38;;;;;;;2.8;0.9;;;;;;;20.06;67.16699;941.3669;;;;
2020/05/23 13:51:53;;;;;;;5.6;1;;;;;;;18.79;68.32324;942.394;;;;
2020/05/23 13:54:18;;;;;;;1.9;0.7;;;;;;;18.45;69.41113;942.6018;;;;
2020/05/23 13:59:08;;;;;;;2.7;0.8;;;;;;;17.7;69.0127;943.1819;;;;
2020/05/23 14:01:33;;;;;;;1;0.6;;;;;;;17.46;69.89258;943.272;;;;
2020/05/23 14:03:59;;;;;;;2;0.5;;;;;;;17.33;70.5332;943.4412;;;;
2020/05/23 14:06:24;;;;;;;0.6;0.5;;;;;;;17.26;69.62891;943.6905;;;;
2020/05/23 14:08:49;;;;;;;1.2;0.7;;;;;;;17.2;70.07227;943.6641;;;;
2020/05/23 14:11:14;;;;;;;3.1;1.3;;;;;;;17.17;70.33301;943.9919;;;;
2020/05/23 14:13:39;;;;;;;4.6;1.3;;;;;;;17.12;70.36133;944.0019;;;;
2020/05/23 14:16:29;;;;;;;1.7;0.8;;;;;;;16.99;70.97559;944.2832;;;;
2020/05/23 14:18:33;;;;;;;3;1.7;;;;;;;16.82;72.61719;944.3791;;;;
2020/05/23 14:20:55;;;;;;;5;3;;;;;;;16.7;73.41992;944.553;;;;
2020/05/23 14:23:23;;;;;;;6;2;;;;;;;16.25;75.66895;944.5712;;;;
2020/05/23 14:28:20;;;;;;;1.7;1.1;;;;;;;16.26;76.00781;944.7214;;;;
2020/05/23 14:35:32;;;;;;;3.8;1.5;;;;;;;15.9;78.65039;945.1342;;;;
2020/05/23 14:37:51;;;;;;;3.6;0.8;;;;;;;15.85;78.60547;945.2202;;;;
2020/05/23 14:40:36;;;;;;;3.9;0.8;;;;;;;15.79;78.36328;945.2792;;;;
2020/05/23 14:42:46;;;;;;;2.8;0.8;;;;;;;15.83;78.70703;945.4819;;;;
2020/05/23 14:45:08;;;;;;;4;1.4;;;;;;;15.44;79.38574;945.4668;;;;
2020/05/23 14:52:28;;;;;;;2.8;1;;;;;;;14.71;78.70117;945.7484;;;;
2020/05/23 14:54:53;;;;;;;7.1;1.1;;;;;;;14.44;78.74316;945.9676;;;;
2020/05/23 14:57:18;;;;;;;2.6;1.1;;;;;;;14.27;79.0957;945.9882;;;;
2020/05/23 14:59:43;;;;;;;3.1;0.8;;;;;;;14.25;78.50293;946.0609;;;;
2020/05/23 15:02:09;;;;;;;2;0.8;;;;;;;14.19;77.4209;946.2019;;;;
2020/05/23 15:04:34;;;;;;;6;1.2;;;;;;;14.11;78.56738;946.2653;;;;
2020/05/23 15:07:00;;;;;;;1.8;0.8;;;;;;;14.14;77.87207;946.3817;;;;
2020/05/23 15:09:27;;;;;;;2.5;0.6;;;;;;;14.02;77.33301;946.4303;;;;
2020/05/23 15:11:51;;;;;;;1.3;0.7;;;;;;;13.83;78.27734;946.429;;;;
2020/05/23 15:14:16;;;;;;;3.7;0.9;;;;;;;13.8;78.20117;946.5589;;;;
2020/05/23 15:16:43;;;;;;;1.6;0.9;;;;;;;13.68;79.06641;946.6297;;;;
2020/05/23 15:19:08;;;;;;;0.8;0.8;;;;;;;13.7;78.88574;946.7236;;;;
2020/05/23 15:21:34;;;;;;;6.2;1;;;;;;;13.6;79.15527;946.8822;;;;
2020/05/23 15:23:59;;;;;;;2.6;0.9;;;;;;;13.48;80.43262;947.0119;;;;
2020/05/23 15:27:36;;;;;;;2.4;1;;;;;;;13.63;79.51758;947.0981;;;;
2020/05/23 15:28:54;;;;;;;3.5;1.2;;;;;;;13.76;81.03613;947.2068;;;;
2020/05/23 15:31:19;;;;;;;1.1;1;;;;;;;14;78.45801;947.1867;;;;
2020/05/23 15:33:44;;;;;;;3.3;1.3;;;;;;;13.71;79.26855;947.2183;;;;
2020/05/23 15:36:10;;;;;;;4.8;1.3;;;;;;;13.53;80.82227;947.4199;;;;
2020/05/23 15:38:40;;;;;;;2.2;1.4;;;;;;;13.63;79.93164;947.4142;;;;
2020/05/23 15:41:05;;;;;;;2.8;1.7;;;;;;;13.46;79.54395;947.4318;;;;
2020/05/23 15:43:30;;;;;;;1.7;0.9;;;;;;;13.56;79.90723;947.5003;;;;
2020/05/23 15:48:26;;;;;;;1.6;0.8;;;;;;;13.64;78.95605;947.4849;;;;
2020/05/23 15:50:46;;;;;;;1.4;0.7;;;;;;;13.71;78.70508;947.5065;;;;
2020/05/23 15:53:14;;;;;;;0.9;0.5;;;;;;;13.75;78.28418;947.4733;;;;
2020/05/23 15:55:37;;;;;;;1.1;0.5;;;;;;;14.01;76.83594;947.4478;;;;
2020/05/23 16:00:28;;;;;;;1.8;0.6;;;;;;;14.07;78.41309;947.3053;;;;
2020/05/23 16:02:54;;;;;;;0.9;0.5;;;;;;;14.3;78.8457;947.3633;;;;
2020/05/23 16:05:20;;;;;;;1.2;0.8;;;;;;;14.33;78.62012;947.3459;;;;
2020/05/23 16:07:58;;;;;;;1.9;0.9;;;;;;;14.38;81.60156;947.2879;;;;
2020/05/23 16:10:11;;;;;;;1.6;0.9;;;;;;;14.54;80.89453;947.3276;;;;
2020/05/23 16:12:36;;;;;;;2.2;0.9;;;;;;;14.51;81.6709;947.3826;;;;
2020/05/23 16:15:01;;;;;;;1.6;0.7;;;;;;;14.64;81.83496;947.4419;;;;
2020/05/23 16:17:29;;;;;;;1.6;0.6;;;;;;;14.83;80.625;947.5887;;;;
2020/05/23 16:19:55;;;;;;;1;0.6;;;;;;;14.75;79.65527;947.4989;;;;
2020/05/23 16:22:19;;;;;;;1.9;0.7;;;;;;;14.83;78.33203;947.5022;;;;
2020/05/23 16:24:42;;;;;;;1.6;1;;;;;;;14.7;78.50391;947.5906;;;;
2020/05/23 16:27:07;;;;;;;1.5;1;;;;;;;14.75;79.91992;947.4956;;;;
2020/05/23 16:29:32;;;;;;;1.9;1;;;;;;;14.89;79.70117;947.5595;;;;
2020/05/23 16:31:57;;;;;;;2.5;1;;;;;;;14.73;79.07324;947.4202;;;;
2020/05/23 16:34:23;;;;;;;1.7;0.9;;;;;;;14.71;78.03223;947.3414;;;;
2020/05/23 16:36:59;;;;;;;2.4;1.1;;;;;;;14.73;79.48828;947.2742;;;;
2020/05/23 16:39:14;;;;;;;2.9;0.9;;;;;;;14.71;81.04004;947.2459;;;;
2020/05/23 16:41:39;;;;;;;1.6;1.1;;;;;;;14.83;80.5459;947.3081;;;;
2020/05/23 16:44:04;;;;;;;2.4;1.3;;;;;;;14.87;79.02832;947.2955;;;;
2020/05/23 16:46:29;;;;;;;2.9;1.5;;;;;;;14.66;79.93652;947.2913;;;;
2020/05/23 16:48:55;;;;;;;4.2;3.2;;;;;;;14.44;82.64844;947.1713;;;;
2020/05/23 16:51:24;;;;;;;2.1;1.3;;;;;;;14.55;81.66992;947.1914;;;;
2020/05/23 16:53:49;;;;;;;1.9;1.3;;;;;;;14.48;82.26563;947.1284;;;;
2020/05/23 16:56:14;;;;;;;1.9;1;;;;;;;14.53;81.80273;947.14;;;;
2020/05/23 16:58:39;;;;;;;1.8;1.3;;;;;;;14.4;82.90625;947.1647;;;;
2020/05/23 17:05:57;;;;;;;1.9;1.4;;;;;;;14.48;82.2998;947.2822;;;;
2020/05/23 17:08:20;;;;;;;4.7;1.5;;;;;;;14.21;82.85938;947.209;;;;
2020/05/23 17:10:47;;;;;;;2.1;1.2;;;;;;;14.3;83.78613;947.2302;;;;
2020/05/23 17:13:12;;;;;;;1.8;1;;;;;;;14.37;82.66895;947.2742;;;;
2020/05/23 17:18:10;;;;;;;1.5;1.1;;;;;;;14.32;82.97363;947.2216;;;;
2020/05/23 17:20:53;;;;;;;1.5;1;;;;;;;14.45;83.23926;947.1707;;;;
2020/05/23 17:22:59;;;;;;;1.7;1.1;;;;;;;14.49;83.2793;947.1644;;;;
2020/05/23 17:25:24;;;;;;;1.4;0.9;;;;;;;14.64;82.30762;947.223;;;;
2020/05/23 17:27:49;;;;;;;1.2;0.8;;;;;;;14.44;82.32715;947.1793;;;;
2020/05/23 17:30:14;;;;;;;1.3;0.9;;;;;;;14.46;83.37793;947.3237;;;;
2020/05/23 17:32:39;;;;;;;1.3;0.9;;;;;;;14.54;83.24512;947.2867;;;;
2020/05/23 17:35:05;;;;;;;1.3;1.1;;;;;;;14.58;83.20605;947.3616;;;;
2020/05/23 17:37:30;;;;;;;1.7;0.8;;;;;;;14.65;82.87402;947.3481;;;;
2020/05/23 17:39:56;;;;;;;1.7;1;;;;;;;14.65;82.26172;947.4442;;;;
2020/05/23 17:42:21;;;;;;;1;0.9;;;;;;;14.52;81.87012;947.5302;;;;
2020/05/23 17:44:48;;;;;;;1.7;0.8;;;;;;;14.47;81.92969;947.4874;;;;
2020/05/23 17:47:14;;;;;;;1.6;0.8;;;;;;;14.5;81.69238;947.5316;;;;
2020/05/23 17:49:40;;;;;;;1.5;1;;;;;;;14.45;80.7168;947.4863;;;;
2020/05/23 17:52:05;;;;;;;3.1;1.2;;;;;;;14.35;81.93066;947.5432;;;;
2020/05/23 17:54:30;;;;;;;3;1.1;;;;;;;14.32;80.80664;947.5421;;;;
2020/05/23 17:56:56;;;;;;;1.7;1.2;;;;;;;14.23;80.8125;947.4947;;;;
2020/05/23 17:59:22;;;;;;;4.7;1.5;;;;;;;14.13;81.09375;947.5583;;;;
2020/05/23 18:01:47;;;;;;;7;1.6;;;;;;;13.87;81.01074;947.62;;;;
2020/05/23 18:04:13;;;;;;;3.1;1.4;;;;;;;13.75;81.93164;947.6071;;;;
2020/05/23 18:06:38;;;;;;;6.4;1.4;;;;;;;13.61;82.56152;947.6066;;;;
2020/05/23 18:09:03;;;;;;;6.1;1.5;;;;;;;13.65;82.62598;947.5514;;;;
2020/05/23 18:11:31;;;;;;;2.9;1.4;;;;;;;13.63;82.18359;947.5414;;;;
2020/05/23 18:13:54;;;;;;;4.9;1.5;;;;;;;13.65;82.75293;947.5658;;;;
2020/05/23 18:16:34;;;;;;;5.1;1.3;;;;;;;13.71;81.94824;947.5248;;;;
2020/05/23 18:21:11;;;;;;;2.3;1.3;;;;;;;13.57;82.59961;947.4339;;;;
2020/05/23 18:23:37;;;;;;;1.8;1.2;;;;;;;13.56;81.68945;947.2698;;;;
2020/05/23 18:26:02;;;;;;;2;1.4;;;;;;;13.53;81.76465;947.219;;;;
2020/05/23 18:28:29;;;;;;;2;1.4;;;;;;;13.47;81.7168;947.1063;;;;
2020/05/23 18:30:54;;;;;;;2;1.5;;;;;;;13.41;82.35156;947.1428;;;;
2020/05/23 18:33:20;;;;;;;2.4;1.4;;;;;;;13.31;82.25098;947.1871;;;;
2020/05/23 18:35:46;;;;;;;1.8;1.4;;;;;;;13.26;82.59863;947.1393;;;;
2020/05/23 18:38:11;;;;;;;2.7;1.4;;;;;;;13.34;82.22168;947.1011;;;;
2020/05/23 18:40:36;;;;;;;3.5;1.4;;;;;;;13.27;82.64648;947.1937;;;;
2020/05/23 18:43:20;;;;;;;5.7;1.3;;;;;;;13.36;82.3418;947.2166;;;;
2020/05/23 18:48:04;;;;;;;2.8;1.5;;;;;;;13.21;82.61328;947.3994;;;;
2020/05/23 18:50:32;;;;;;;2.5;1.4;;;;;;;13.11;83.23535;947.4453;;;;
2020/05/23 18:55:54;;;;;;;2.9;1.6;;;;;;;13.11;83.47656;947.3917;;;;
2020/05/23 18:57:53;;;;;;;2.8;1.5;;;;;;;13.13;83.74414;947.3984;;;;
2020/05/23 19:00:37;;;;;;;4.2;1.7;;;;;;;13.08;84.11426;947.3889;;;;
2020/05/23 19:05:03;;;;;;;2.6;1.6;;;;;;;13;84.00879;947.4586;;;;
2020/05/23 19:07:15;;;;;;;2.4;1.6;;;;;;;12.96;84.35449;947.5563;;;;
2020/05/23 19:09:40;;;;;;;1.9;1.5;;;;;;;13.02;84.42578;947.6024;;;;
2020/05/23 19:12:05;;;;;;;2.9;1.6;;;;;;;12.99;83.70703;947.5192;;;;
2020/05/23 19:14:30;;;;;;;2.4;1.7;;;;;;;12.93;83.8916;947.6503;;;;
2020/05/23 19:16:56;;;;;;;3;1.7;;;;;;;12.87;84.42871;947.7636;;;;
2020/05/23 19:19:21;;;;;;;3;1.6;;;;;;;12.67;85.36523;947.7784;;;;
2020/05/23 19:21:47;;;;;;;3.3;2;;;;;;;12.69;85.62305;947.9122;;;;
2020/05/23 19:24:12;;;;;;;2.2;1.8;;;;;;;12.33;86.02148;947.9692;;;;
2020/05/23 19:26:37;;;;;;;3.4;2.2;;;;;;;12.33;86.20508;948.0139;;;;
2020/05/23 19:29:02;;;;;;;4.4;2;;;;;;;12.33;85.82715;947.9573;;;;
2020/05/23 19:33:54;;;;;;;1.8;1.5;;;;;;;12.32;85.60547;948.1128;;;;
2020/05/23 19:36:19;;;;;;;3.1;1.7;;;;;;;12.33;85.34766;948.1188;;;;
2020/05/23 19:38:44;;;;;;;2.6;1.7;;;;;;;12.37;85.15723;948.1186;;;;
2020/05/23 19:41:09;;;;;;;4.1;1.7;;;;;;;12.3;85.12012;948.0893;;;;
2020/05/23 19:43:36;;;;;;;2.2;1.5;;;;;;;12.03;85.89453;948.123;;;;
2020/05/23 19:46:01;;;;;;;1.7;1.5;;;;;;;11.93;85.86328;948.1647;;;;
2020/05/23 19:48:27;;;;;;;1.6;1.5;;;;;;;11.93;86.33301;948.3067;;;;